Friend, Kansas
Current Conditions -  °F | °C
As of 3:54 AM on Sunday 26 Oct 2014 (Local Time) from KGCK Reporting Station
Clear Clear  
Wind Chill: 56°   Ceiling: Unl
Heat Index: 56°   Visibility: 10mi
Dew Point: 48°   Wind: 7mph
Humidity: 75%   Direction: 180°S
Pressure: 29.84"   Gusts: NA
Location:  38.4822°N, 100.811°W
Report Text: KGCK 260854Z AUTO 18006KT 10SM CLR 13/09 A2984 RMK AO2 SLP072 T01330089 57020
Loading
Personal Weather Stations






























Interactive Weather Map
Tropical Storm Tracking
New forecast layout! Learn more

10-Day Weather Forecast

Advertisements
Track Severe Weather on mobile